createdAt,value
2019-03-15T00:00:29.869Z,954.00
2019-03-15T00:01:29.781Z,954.02
2019-03-15T00:02:29.711Z,954.05
2019-03-15T00:03:29.647Z,954.05
2019-03-15T00:04:29.580Z,954.02
2019-03-15T00:05:29.508Z,954.13
2019-03-15T00:06:29.445Z,954.12
2019-03-15T00:07:29.379Z,954.17
2019-03-15T00:08:29.311Z,954.22
2019-03-15T00:09:29.246Z,954.26
2019-03-15T00:10:29.180Z,954.25
2019-03-15T00:11:29.406Z,954.26
2019-03-15T00:12:29.041Z,954.27
2019-03-15T00:13:28.977Z,954.30
2019-03-15T00:14:28.909Z,954.32
2019-03-15T00:15:28.858Z,954.35
2019-03-15T00:16:28.784Z,954.34
2019-03-15T00:17:28.707Z,954.32
2019-03-15T00:18:28.656Z,954.40
2019-03-15T00:19:28.575Z,954.41
2019-03-15T00:20:28.508Z,954.38
2019-03-15T00:21:28.439Z,954.42
2019-03-15T00:22:28.375Z,954.40
2019-03-15T00:23:28.302Z,954.47
2019-03-15T00:24:28.239Z,954.43
2019-03-15T00:25:28.190Z,954.43
2019-03-15T00:26:28.108Z,954.44
2019-03-15T00:27:28.039Z,954.43
2019-03-15T00:28:27.975Z,954.43
2019-03-15T00:29:27.913Z,954.39
2019-03-15T00:30:27.834Z,954.38
2019-03-15T00:31:27.771Z,954.46
2019-03-15T00:32:27.705Z,954.45
2019-03-15T00:33:27.637Z,954.52
2019-03-15T00:34:27.577Z,954.50
2019-03-15T00:35:27.564Z,954.51
2019-03-15T00:36:27.442Z,954.52
2019-03-15T00:37:27.368Z,954.51
2019-03-15T00:38:27.302Z,954.55
2019-03-15T00:39:27.239Z,954.55
2019-03-15T00:40:27.169Z,954.54
2019-03-15T00:41:27.101Z,954.61
2019-03-15T00:42:27.038Z,954.60
2019-03-15T00:43:26.968Z,954.62
2019-03-15T00:44:26.901Z,954.57
2019-03-15T00:45:26.840Z,954.55
2019-03-15T00:46:26.769Z,954.61
2019-03-15T00:47:26.706Z,954.65
2019-03-15T00:48:26.638Z,954.61
2019-03-15T00:49:26.571Z,954.61
2019-03-15T00:50:26.504Z,954.63
2019-03-15T00:51:26.445Z,954.57
2019-03-15T00:52:26.374Z,954.62
2019-03-15T00:53:26.307Z,954.60
2019-03-15T00:54:26.240Z,954.65
2019-03-15T00:55:26.164Z,954.63
2019-03-15T00:56:26.097Z,954.61
2019-03-15T00:57:26.030Z,954.62
2019-03-15T00:58:25.963Z,954.62
2019-03-15T00:59:25.894Z,954.63
2019-03-15T01:00:25.828Z,954.63
2019-03-15T01:01:25.762Z,954.66
2019-03-15T01:02:25.697Z,954.68
2019-03-15T01:03:25.630Z,954.67
2019-03-15T01:04:25.569Z,954.76
2019-03-15T01:05:25.496Z,954.72
2019-03-15T01:06:25.433Z,954.70
2019-03-15T01:07:25.361Z,954.75
2019-03-15T01:08:25.296Z,954.81
2019-03-15T01:09:25.231Z,954.86
2019-03-15T01:10:25.165Z,954.78
2019-03-15T01:11:25.096Z,954.83
2019-03-15T01:12:25.033Z,954.87
2019-03-15T01:13:24.958Z,954.91
2019-03-15T01:14:24.895Z,954.90
2019-03-15T01:15:24.827Z,954.91
2019-03-15T01:16:24.765Z,954.93
2019-03-15T01:17:24.702Z,954.88
2019-03-15T01:18:24.625Z,954.95
2019-03-15T01:19:24.568Z,954.98
2019-03-15T01:20:24.492Z,954.98
2019-03-15T01:21:24.425Z,955.00
2019-03-15T01:22:24.358Z,954.98
2019-03-15T01:23:24.296Z,954.97
2019-03-15T01:24:24.222Z,954.97
2019-03-15T01:25:24.160Z,954.96
2019-03-15T01:26:24.089Z,954.89
2019-03-15T01:27:24.029Z,954.95
2019-03-15T01:28:23.959Z,954.95
2019-03-15T01:29:23.892Z,954.94
2019-03-15T01:30:23.827Z,954.89
2019-03-15T01:31:23.756Z,954.93
2019-03-15T01:32:23.693Z,954.95
2019-03-15T01:33:23.622Z,954.95
2019-03-15T01:34:23.557Z,954.94
2019-03-15T01:35:23.494Z,954.97
2019-03-15T01:36:23.438Z,954.97
2019-03-15T01:37:23.367Z,954.98
2019-03-15T01:38:23.291Z,954.91
2019-03-15T01:39:23.220Z,954.95
2019-03-15T01:40:23.154Z,954.97
2019-03-15T01:41:23.090Z,954.96
2019-03-15T01:42:23.016Z,954.99
2019-03-15T01:43:22.954Z,954.93
2019-03-15T01:44:22.890Z,954.98
2019-03-15T01:45:22.816Z,954.98
2019-03-15T01:46:22.753Z,955.00
2019-03-15T01:47:22.686Z,955.04
2019-03-15T01:48:22.628Z,955.05
2019-03-15T01:49:22.550Z,955.03
2019-03-15T01:50:22.484Z,954.98
2019-03-15T01:51:22.418Z,954.90
2019-03-15T01:52:22.350Z,954.90
2019-03-15T01:53:23.415Z,954.93
2019-03-15T01:54:22.218Z,954.95
2019-03-15T01:55:22.162Z,954.94
2019-03-15T01:56:22.083Z,954.97
2019-03-15T01:57:22.016Z,954.98
2019-03-15T01:58:21.949Z,954.94
2019-03-15T01:59:22.583Z,954.92
2019-03-15T02:00:21.815Z,954.90
2019-03-15T02:01:21.746Z,954.94
2019-03-15T02:02:22.330Z,954.92
2019-03-15T02:03:21.632Z,954.88
2019-03-15T02:04:21.551Z,954.93
2019-03-15T02:05:21.481Z,954.94
2019-03-15T02:06:21.420Z,954.88
2019-03-15T02:07:21.344Z,954.92
2019-03-15T02:08:21.277Z,954.88
2019-03-15T02:09:21.214Z,954.91
2019-03-15T02:10:22.235Z,954.92
2019-03-15T02:11:21.085Z,954.94
2019-03-15T02:12:21.774Z,954.94
2019-03-15T02:13:20.947Z,954.97
2019-03-15T02:14:20.875Z,955.00
2019-03-15T02:15:20.810Z,955.00
2019-03-15T02:16:20.741Z,954.92
2019-03-15T02:17:20.676Z,954.90
2019-03-15T02:18:20.604Z,954.91
2019-03-15T02:19:20.536Z,954.87
2019-03-15T02:20:20.476Z,954.85
2019-03-15T02:21:20.411Z,954.90
2019-03-15T02:22:20.342Z,954.94
2019-03-15T02:23:20.297Z,954.97
2019-03-15T02:24:20.217Z,955.02
2019-03-15T02:25:20.139Z,955.00
2019-03-15T02:26:20.071Z,955.00
2019-03-15T02:27:20.006Z,955.02
2019-03-15T02:28:19.941Z,955.06
2019-03-15T02:29:19.866Z,955.03
2019-03-15T02:30:19.803Z,955.07
2019-03-15T02:31:20.828Z,955.09
2019-03-15T02:32:19.669Z,955.11
2019-03-15T02:33:19.603Z,955.12
2019-03-15T02:34:19.537Z,955.12
2019-03-15T02:35:19.934Z,955.09
2019-03-15T02:36:19.401Z,955.07
2019-03-15T02:37:19.334Z,955.10
2019-03-15T02:38:19.284Z,955.18
2019-03-15T02:39:19.930Z,955.21
2019-03-15T02:40:19.139Z,955.23
2019-03-15T02:41:19.066Z,955.21
2019-03-15T02:42:19.022Z,955.20
2019-03-15T02:43:19.197Z,955.23
2019-03-15T02:44:18.863Z,955.25
2019-03-15T02:45:18.801Z,955.26
2019-03-15T02:46:18.730Z,955.27
2019-03-15T02:47:19.436Z,955.34
2019-03-15T02:48:18.596Z,955.31
2019-03-15T02:49:18.540Z,955.25
2019-03-15T02:50:18.507Z,955.35
2019-03-15T02:51:18.394Z,955.33
2019-03-15T02:52:18.331Z,955.41
2019-03-15T02:53:18.260Z,955.42
2019-03-15T02:54:18.190Z,955.37
2019-03-15T02:55:18.133Z,955.38
2019-03-15T02:56:18.060Z,955.36
2019-03-15T02:57:17.990Z,955.40
2019-03-15T02:58:17.932Z,955.39
2019-03-15T02:59:17.858Z,955.40
2019-03-15T03:00:17.797Z,955.43
2019-03-15T03:01:17.726Z,955.39
2019-03-15T03:02:17.656Z,955.38
2019-03-15T03:03:17.596Z,955.39
2019-03-15T03:04:17.519Z,955.43
2019-03-15T03:05:17.449Z,955.48
2019-03-15T03:06:17.389Z,955.44
2019-03-15T03:07:17.321Z,955.48
2019-03-15T03:08:17.257Z,955.48
2019-03-15T03:09:17.203Z,955.43
2019-03-15T03:10:17.124Z,955.42
2019-03-15T03:11:17.054Z,955.42
2019-03-15T03:12:17.593Z,955.40
2019-03-15T03:13:16.918Z,955.48
2019-03-15T03:14:16.848Z,955.43
2019-03-15T03:15:16.787Z,955.43
2019-03-15T03:16:18.549Z,955.45
2019-03-15T03:17:16.659Z,955.45
2019-03-15T03:18:16.582Z,955.43
2019-03-15T03:19:16.515Z,955.46
2019-03-15T03:20:16.451Z,955.48
2019-03-15T03:21:16.398Z,955.44
2019-03-15T03:22:16.317Z,955.42
2019-03-15T03:23:16.242Z,955.38
2019-03-15T03:24:16.193Z,955.41
2019-03-15T03:25:17.206Z,955.47
2019-03-15T03:26:16.051Z,955.39
2019-03-15T03:27:15.983Z,955.43
2019-03-15T03:28:15.917Z,955.41
2019-03-15T03:29:15.849Z,955.46
2019-03-15T03:30:17.137Z,955.42
2019-03-15T03:31:16.198Z,955.44
2019-03-15T03:32:15.643Z,955.41
2019-03-15T03:33:15.577Z,955.46
2019-03-15T03:34:15.506Z,955.53
2019-03-15T03:35:15.445Z,955.53
2019-03-15T03:36:15.372Z,955.55
2019-03-15T03:37:15.306Z,955.56
2019-03-15T03:38:15.241Z,955.60
2019-03-15T03:39:15.172Z,955.65
2019-03-15T03:40:15.107Z,955.63
2019-03-15T03:41:15.036Z,955.65
2019-03-15T03:42:14.988Z,955.65
2019-03-15T03:43:14.903Z,955.60
2019-03-15T03:44:14.844Z,955.59
2019-03-15T03:45:14.777Z,955.63
2019-03-15T03:46:14.699Z,955.64
2019-03-15T03:47:14.641Z,955.54
2019-03-15T03:48:15.918Z,955.67
2019-03-15T03:49:14.503Z,955.72
2019-03-15T03:50:14.433Z,955.77
2019-03-15T03:51:14.373Z,955.76
2019-03-15T03:52:14.301Z,955.81
2019-03-15T03:53:14.231Z,955.79
2019-03-15T03:54:14.165Z,955.80
2019-03-15T03:55:14.100Z,955.87
2019-03-15T03:56:14.034Z,955.83
2019-03-15T03:57:13.967Z,955.82
2019-03-15T03:58:13.906Z,955.80
2019-03-15T03:59:13.913Z,955.78
2019-03-15T04:00:13.768Z,955.69
2019-03-15T04:01:13.697Z,955.69
2019-03-15T04:02:13.633Z,955.76
2019-03-15T04:03:13.570Z,955.76
2019-03-15T04:04:13.494Z,955.75
2019-03-15T04:05:13.444Z,955.79
2019-03-15T04:06:13.360Z,955.80
2019-03-15T04:07:13.307Z,955.81
2019-03-15T04:08:13.227Z,955.80
2019-03-15T04:09:13.160Z,955.78
2019-03-15T04:10:13.093Z,955.83
2019-03-15T04:11:13.027Z,955.82
2019-03-15T04:12:12.961Z,955.82
2019-03-15T04:13:12.892Z,955.76
2019-03-15T04:14:12.843Z,955.76
2019-03-15T04:15:12.769Z,955.77
2019-03-15T04:16:12.695Z,955.76
2019-03-15T04:17:12.623Z,955.76
2019-03-15T04:18:12.558Z,955.75
2019-03-15T04:19:12.490Z,955.81
2019-03-15T04:20:12.427Z,955.79
2019-03-15T04:21:12.357Z,955.84
2019-03-15T04:22:12.296Z,955.85
2019-03-15T04:23:12.230Z,955.82
2019-03-15T04:24:12.211Z,955.85
2019-03-15T04:25:12.095Z,955.89
2019-03-15T04:26:12.021Z,955.85
2019-03-15T04:27:11.959Z,955.88
2019-03-15T04:28:11.884Z,955.87
2019-03-15T04:29:12.075Z,955.89
2019-03-15T04:30:11.756Z,955.92
2019-03-15T04:31:11.689Z,955.93
2019-03-15T04:32:11.637Z,955.95
2019-03-15T04:33:11.556Z,955.95
2019-03-15T04:34:11.492Z,955.91
2019-03-15T04:35:11.416Z,955.95
2019-03-15T04:36:11.354Z,955.93
2019-03-15T04:37:11.287Z,955.93
2019-03-15T04:38:11.219Z,955.91
2019-03-15T04:39:13.841Z,955.91
2019-03-15T04:40:11.094Z,955.98
2019-03-15T04:41:11.029Z,955.96
2019-03-15T04:42:11.157Z,955.95
2019-03-15T04:43:10.890Z,955.96
2019-03-15T04:44:10.816Z,955.97
2019-03-15T04:45:10.751Z,955.99
2019-03-15T04:46:10.682Z,955.99
2019-03-15T04:47:10.619Z,956.01
2019-03-15T04:48:10.551Z,955.94
2019-03-15T04:49:10.492Z,955.90
2019-03-15T04:50:10.416Z,955.89
2019-03-15T04:51:10.351Z,955.91
2019-03-15T04:52:10.371Z,955.93
2019-03-15T04:53:10.213Z,955.94
2019-03-15T04:54:10.150Z,955.93
2019-03-15T04:55:10.087Z,956.02
2019-03-15T04:56:10.025Z,956.02
2019-03-15T04:57:09.952Z,956.03
2019-03-15T04:58:09.886Z,956.08
2019-03-15T04:59:09.855Z,956.07
2019-03-15T05:00:09.749Z,956.11
2019-03-15T05:01:09.685Z,956.15
2019-03-15T05:02:09.635Z,956.14
2019-03-15T05:03:09.553Z,956.21
2019-03-15T05:04:09.493Z,956.19
2019-03-15T05:05:09.416Z,956.24
2019-03-15T05:06:09.366Z,956.26
2019-03-15T05:07:09.282Z,956.33
2019-03-15T05:08:09.224Z,956.38
2019-03-15T05:09:09.150Z,956.41
2019-03-15T05:10:09.084Z,956.46
2019-03-15T05:11:09.017Z,956.40
2019-03-15T05:12:08.947Z,956.39
2019-03-15T05:13:08.892Z,956.37
2019-03-15T05:14:08.816Z,956.30
2019-03-15T05:15:08.748Z,956.32
2019-03-15T05:16:08.688Z,956.34
2019-03-15T05:17:08.622Z,956.37
2019-03-15T05:18:08.548Z,956.37
2019-03-15T05:19:08.484Z,956.33
2019-03-15T05:20:08.426Z,956.34
2019-03-15T05:21:08.348Z,956.36
2019-03-15T05:22:08.284Z,956.33
2019-03-15T05:23:08.220Z,956.33
2019-03-15T05:24:08.152Z,956.30
2019-03-15T05:25:08.086Z,956.31
2019-03-15T05:26:08.015Z,956.32
2019-03-15T05:27:07.958Z,956.27
2019-03-15T05:28:07.884Z,956.25
2019-03-15T05:29:07.824Z,956.34
2019-03-15T05:30:07.786Z,956.32
2019-03-15T05:31:07.694Z,956.33
2019-03-15T05:32:07.613Z,956.36
2019-03-15T05:33:07.551Z,956.32
2019-03-15T05:34:07.482Z,956.30
2019-03-15T05:35:07.417Z,956.32
2019-03-15T05:36:07.352Z,956.28
2019-03-15T05:37:07.291Z,956.27
2019-03-15T05:38:07.220Z,956.26
2019-03-15T05:39:07.148Z,956.26
2019-03-15T05:40:07.083Z,956.21
2019-03-15T05:41:07.023Z,956.18
2019-03-15T05:42:06.948Z,956.17
2019-03-15T05:43:06.879Z,956.20
2019-03-15T05:44:06.817Z,956.22
2019-03-15T05:45:06.750Z,956.17
2019-03-15T05:46:06.684Z,956.20
2019-03-15T05:47:06.615Z,956.19
2019-03-15T05:48:06.553Z,956.18
2019-03-15T05:49:06.481Z,956.18
2019-03-15T05:50:06.413Z,956.17
2019-03-15T05:51:06.350Z,956.16
2019-03-15T05:52:06.283Z,956.22
2019-03-15T05:53:06.214Z,956.22
2019-03-15T05:54:06.154Z,956.21
2019-03-15T05:55:06.087Z,956.16
2019-03-15T05:56:06.027Z,956.17
2019-03-15T05:57:05.946Z,956.16
2019-03-15T05:58:05.882Z,956.19
2019-03-15T05:59:05.816Z,956.23
2019-03-15T06:00:05.755Z,956.25
2019-03-15T06:01:05.689Z,956.23
2019-03-15T06:02:05.619Z,956.29
2019-03-15T06:03:05.553Z,956.32
2019-03-15T06:04:05.479Z,956.36
2019-03-15T06:05:05.414Z,956.38
2019-03-15T06:06:05.346Z,956.31
2019-03-15T06:07:05.280Z,956.34
2019-03-15T06:08:05.215Z,956.23
2019-03-15T06:09:05.149Z,956.21
2019-03-15T06:10:05.087Z,956.23
2019-03-15T06:11:05.025Z,956.17
2019-03-15T06:12:04.948Z,956.11
2019-03-15T06:13:04.877Z,956.12
2019-03-15T06:14:04.809Z,956.10
2019-03-15T06:15:04.751Z,956.09
2019-03-15T06:16:04.678Z,956.12
2019-03-15T06:17:04.610Z,956.11
2019-03-15T06:18:06.734Z,956.14
2019-03-15T06:19:04.490Z,956.18
2019-03-15T06:20:06.398Z,956.20
2019-03-15T06:21:04.349Z,956.19
2019-03-15T06:22:04.276Z,956.19
2019-03-15T06:23:04.210Z,956.19
2019-03-15T06:24:04.143Z,956.22
2019-03-15T06:25:04.089Z,956.20
2019-03-15T06:26:04.008Z,956.20
2019-03-15T06:27:03.949Z,956.23
2019-03-15T06:28:03.874Z,956.22
2019-03-15T06:29:03.807Z,956.19
2019-03-15T06:30:03.748Z,956.22
2019-03-15T06:31:03.672Z,956.24
2019-03-15T06:32:03.609Z,956.23
2019-03-15T06:33:03.586Z,956.22
2019-03-15T06:34:03.482Z,956.20
2019-03-15T06:35:03.408Z,956.19
2019-03-15T06:36:03.353Z,956.16
2019-03-15T06:37:03.275Z,956.17
2019-03-15T06:38:03.212Z,956.16
2019-03-15T06:39:03.140Z,956.18
2019-03-15T06:40:03.125Z,956.16
2019-03-15T06:41:03.004Z,956.13
2019-03-15T06:42:02.939Z,956.13
2019-03-15T06:43:02.875Z,956.11
2019-03-15T06:44:02.805Z,956.11
2019-03-15T06:45:02.745Z,956.10
2019-03-15T06:46:02.672Z,956.09
2019-03-15T06:47:02.605Z,956.14
2019-03-15T06:48:02.544Z,956.15
2019-03-15T06:49:02.471Z,956.13
2019-03-15T06:50:02.411Z,956.12
2019-03-15T06:51:02.338Z,956.12
2019-03-15T06:52:02.276Z,956.14
2019-03-15T06:53:02.205Z,956.11
2019-03-15T06:54:11.318Z,956.12
2019-03-15T06:55:05.127Z,956.06
2019-03-15T06:56:02.004Z,956.06
2019-03-15T06:57:01.945Z,956.11
2019-03-15T06:58:01.868Z,956.08
2019-03-15T06:59:01.807Z,956.08
2019-03-15T07:00:01.744Z,956.09
2019-03-15T07:01:01.701Z,956.10
2019-03-15T07:02:01.608Z,956.09
2019-03-15T07:03:01.542Z,956.10
2019-03-15T07:04:01.484Z,956.12
2019-03-15T07:05:01.403Z,956.14
2019-03-15T07:06:01.339Z,956.11
2019-03-15T07:07:01.310Z,956.14
2019-03-15T07:08:01.207Z,956.09
2019-03-15T07:09:01.144Z,956.09
2019-03-15T07:10:01.080Z,956.12
2019-03-15T07:11:01.014Z,956.12
2019-03-15T07:12:09.322Z,956.12
2019-03-15T07:13:00.872Z,956.10
2019-03-15T07:14:00.830Z,956.14
2019-03-15T07:15:00.746Z,956.13
2019-03-15T07:16:00.676Z,956.15
2019-03-15T07:17:00.613Z,956.11
2019-03-15T07:18:00.557Z,956.14
2019-03-15T07:19:00.475Z,956.12
2019-03-15T07:20:00.408Z,956.13
2019-03-15T07:21:00.344Z,956.12
2019-03-15T07:22:00.279Z,956.11
2019-03-15T07:23:00.219Z,956.12
2019-03-15T07:24:00.153Z,956.09
2019-03-15T07:25:00.093Z,956.09
2019-03-15T07:26:00.011Z,956.10
2019-03-15T07:27:12.088Z,956.09
2019-03-15T07:27:59.880Z,956.07
2019-03-15T07:28:59.811Z,956.10
2019-03-15T07:30:00.095Z,956.07
2019-03-15T07:30:59.700Z,956.10
2019-03-15T07:31:59.621Z,956.12
2019-03-15T07:32:59.551Z,956.07
2019-03-15T07:33:59.481Z,956.07
2019-03-15T07:34:59.417Z,956.09
2019-03-15T07:35:59.688Z,956.06
2019-03-15T07:36:59.290Z,956.07
2019-03-15T07:37:59.225Z,956.06
2019-03-15T07:38:59.152Z,956.11
2019-03-15T07:39:59.084Z,956.15
2019-03-15T07:40:59.019Z,956.19
2019-03-15T07:41:58.952Z,956.19
2019-03-15T07:43:03.115Z,956.16
2019-03-15T07:43:58.825Z,956.23
2019-03-15T07:44:58.756Z,956.27
2019-03-15T07:45:58.691Z,956.23
2019-03-15T07:46:58.621Z,956.26
2019-03-15T07:47:58.553Z,956.30
2019-03-15T07:48:58.488Z,956.28
2019-03-15T07:49:58.426Z,956.28
2019-03-15T07:50:58.366Z,956.31
2019-03-15T07:51:58.302Z,956.34
2019-03-15T07:52:58.314Z,956.34
2019-03-15T07:53:58.205Z,956.34
2019-03-15T07:54:58.123Z,956.32
2019-03-15T07:55:58.059Z,956.30
2019-03-15T07:56:58.009Z,956.26
2019-03-15T07:57:57.901Z,956.25
2019-03-15T07:58:57.838Z,956.29
2019-03-15T07:59:57.838Z,956.25
2019-03-15T08:00:57.694Z,956.38
2019-03-15T08:01:57.630Z,956.24
2019-03-15T08:02:57.567Z,956.29
2019-03-15T08:03:57.500Z,956.32
2019-03-15T08:04:57.438Z,956.28
2019-03-15T08:05:57.369Z,956.33
2019-03-15T08:06:57.305Z,956.37
2019-03-15T08:07:57.232Z,956.34
2019-03-15T08:08:57.172Z,956.36
2019-03-15T08:09:57.119Z,956.33
2019-03-15T08:10:57.033Z,956.39
2019-03-15T08:11:56.974Z,956.37
2019-03-15T08:12:56.918Z,956.38
2019-03-15T08:13:56.843Z,956.37
2019-03-15T08:14:56.771Z,956.36
2019-03-15T08:15:56.707Z,956.38
2019-03-15T08:16:56.639Z,956.42
2019-03-15T08:17:56.576Z,956.43
2019-03-15T08:18:56.514Z,956.42
2019-03-15T08:19:56.443Z,956.41
2019-03-15T08:20:56.378Z,956.43
2019-03-15T08:21:56.739Z,956.41
2019-03-15T08:22:56.244Z,956.39
2019-03-15T08:23:56.180Z,956.39
2019-03-15T08:24:56.109Z,956.47
2019-03-15T08:25:56.048Z,956.45
2019-03-15T08:26:55.983Z,956.46
2019-03-15T08:27:55.911Z,956.41
2019-03-15T08:28:55.847Z,956.42
2019-03-15T08:29:55.779Z,956.47
2019-03-15T08:30:55.724Z,956.53
2019-03-15T08:31:55.649Z,956.51
2019-03-15T08:33:09.169Z,956.54
2019-03-15T08:33:55.517Z,956.58
2019-03-15T08:34:55.453Z,956.59
2019-03-15T08:35:55.383Z,956.54
2019-03-15T08:36:55.314Z,956.53
2019-03-15T08:37:55.249Z,956.56
2019-03-15T08:38:55.188Z,956.54
2019-03-15T08:39:55.122Z,956.51
2019-03-15T08:40:55.110Z,956.52
2019-03-15T08:41:54.988Z,956.48
2019-03-15T08:42:54.916Z,956.51
2019-03-15T08:43:54.855Z,956.50
2019-03-15T08:44:54.791Z,956.52
2019-03-15T08:45:54.724Z,956.50
2019-03-15T08:46:54.662Z,956.54
2019-03-15T08:47:54.594Z,956.50
2019-03-15T08:48:54.528Z,956.54
2019-03-15T08:49:54.453Z,956.51
2019-03-15T08:50:54.391Z,956.44
2019-03-15T08:52:03.723Z,956.50
2019-03-15T08:52:54.574Z,956.47
2019-03-15T08:53:54.195Z,956.47
2019-03-15T08:55:04.678Z,956.51
2019-03-15T08:55:54.063Z,956.52
2019-03-15T08:56:53.992Z,956.50
2019-03-15T08:57:53.927Z,956.49
2019-03-15T08:58:53.860Z,956.47
2019-03-15T08:59:57.530Z,956.41
2019-03-15T09:00:53.731Z,956.43
2019-03-15T09:01:53.663Z,956.27
2019-03-15T09:02:53.600Z,956.46
2019-03-15T09:03:53.528Z,956.44
2019-03-15T09:04:53.468Z,956.39
2019-03-15T09:05:53.481Z,956.37
2019-03-15T09:06:53.337Z,956.41
2019-03-15T09:07:53.264Z,956.46
2019-03-15T09:08:53.200Z,956.43
2019-03-15T09:09:53.136Z,956.42
2019-03-15T09:10:53.066Z,956.43
2019-03-15T09:11:53.005Z,956.41
2019-03-15T09:12:52.934Z,956.45
2019-03-15T09:13:52.869Z,956.40
2019-03-15T09:14:52.806Z,956.40
2019-03-15T09:15:52.738Z,956.46
2019-03-15T09:16:52.669Z,956.38
2019-03-15T09:17:52.606Z,956.35
2019-03-15T09:18:55.344Z,956.31
2019-03-15T09:19:52.474Z,956.41
2019-03-15T09:20:52.405Z,956.34
2019-03-15T09:21:52.340Z,956.35
2019-03-15T09:22:52.274Z,956.29
2019-03-15T09:23:52.210Z,956.27
2019-03-15T09:24:52.176Z,956.25
2019-03-15T09:25:52.081Z,956.21
2019-03-15T09:26:52.008Z,956.28
2019-03-15T09:27:51.944Z,956.26
2019-03-15T09:28:51.877Z,956.22
2019-03-15T09:29:51.812Z,956.23
2019-03-15T09:30:51.750Z,956.24
2019-03-15T09:32:04.432Z,956.18
2019-03-15T09:32:51.615Z,956.17
2019-03-15T09:33:51.545Z,956.19
2019-03-15T09:34:51.480Z,956.24
2019-03-15T09:35:51.414Z,956.26
2019-03-15T09:36:51.356Z,956.29
2019-03-15T09:37:51.310Z,956.24
2019-03-15T09:38:51.212Z,956.34
2019-03-15T09:39:51.153Z,956.37
2019-03-15T09:40:51.083Z,956.31
2019-03-15T09:41:51.015Z,956.27
2019-03-15T09:42:50.976Z,956.28
2019-03-15T09:43:50.887Z,956.18
2019-03-15T09:44:50.818Z,956.24
2019-03-15T09:45:50.753Z,956.18
2019-03-15T09:46:50.683Z,956.26
2019-03-15T09:47:50.618Z,956.13
2019-03-15T09:48:50.551Z,956.15
2019-03-15T09:49:50.486Z,956.14
2019-03-15T09:50:51.715Z,956.13
2019-03-15T09:51:50.353Z,956.09
2019-03-15T09:52:50.289Z,956.06
2019-03-15T09:53:50.220Z,956.02
2019-03-15T09:54:50.157Z,956.05
2019-03-15T09:55:50.089Z,955.96
2019-03-15T09:56:50.026Z,955.96
2019-03-15T09:57:49.957Z,955.98
2019-03-15T09:58:49.899Z,955.95
2019-03-15T09:59:49.834Z,955.90
2019-03-15T10:00:49.757Z,955.83
2019-03-15T10:01:49.695Z,955.90
2019-03-15T10:02:49.638Z,955.91
2019-03-15T10:03:49.567Z,955.84
2019-03-15T10:04:49.493Z,955.86
2019-03-15T10:05:49.431Z,955.81
2019-03-15T10:06:49.358Z,955.83
2019-03-15T10:07:49.302Z,955.80
2019-03-15T10:08:49.232Z,955.86
2019-03-15T10:09:49.157Z,955.87
2019-03-15T10:10:49.467Z,955.81
2019-03-15T10:11:49.032Z,955.85
2019-03-15T10:12:48.969Z,955.83
2019-03-15T10:13:48.898Z,955.82
2019-03-15T10:14:48.833Z,955.79
2019-03-15T10:15:48.889Z,955.70
2019-03-15T10:16:48.715Z,955.78
2019-03-15T10:17:48.639Z,955.78
2019-03-15T10:18:50.578Z,955.77
2019-03-15T10:19:48.502Z,955.76
2019-03-15T10:20:48.432Z,955.67
2019-03-15T10:21:48.371Z,955.67
2019-03-15T10:23:04.633Z,955.64
2019-03-15T10:23:48.245Z,955.64
2019-03-15T10:24:48.173Z,955.60
2019-03-15T10:25:51.151Z,955.64
2019-03-15T10:26:48.037Z,955.63
2019-03-15T10:27:47.969Z,955.65
2019-03-15T10:28:47.906Z,955.58
2019-03-15T10:29:47.848Z,955.54
2019-03-15T10:30:47.781Z,955.57
2019-03-15T10:31:47.710Z,955.50
2019-03-15T10:32:47.643Z,955.51
2019-03-15T10:33:50.681Z,955.45
2019-03-15T10:34:47.509Z,955.51
2019-03-15T10:35:47.450Z,955.43
2019-03-15T10:36:47.376Z,955.45
2019-03-15T10:37:47.316Z,955.43
2019-03-15T10:38:47.248Z,955.33
2019-03-15T10:39:47.181Z,955.28
2019-03-15T10:40:47.117Z,955.29
2019-03-15T10:41:47.049Z,955.25
2019-03-15T10:42:46.984Z,955.29
2019-03-15T10:43:46.917Z,955.10
2019-03-15T10:44:46.849Z,955.22
2019-03-15T10:45:46.784Z,955.18
2019-03-15T10:46:46.718Z,955.21
2019-03-15T10:47:46.656Z,955.12
2019-03-15T10:48:46.593Z,955.16
2019-03-15T10:49:46.522Z,955.16
2019-03-15T10:50:46.457Z,955.18
2019-03-15T10:51:46.388Z,955.15
2019-03-15T10:52:46.324Z,955.18
2019-03-15T10:53:46.267Z,955.15
2019-03-15T10:54:46.192Z,955.11
2019-03-15T10:55:59.168Z,955.14
2019-03-15T10:56:46.061Z,955.16
2019-03-15T10:57:45.989Z,955.13
2019-03-15T10:58:45.928Z,955.19
2019-03-15T10:59:45.863Z,955.12
2019-03-15T11:00:45.794Z,955.07
2019-03-15T11:01:45.731Z,955.07
2019-03-15T11:02:45.665Z,955.04
2019-03-15T11:03:45.598Z,955.07
2019-03-15T11:04:45.544Z,955.04
2019-03-15T11:05:45.464Z,955.11
2019-03-15T11:06:45.398Z,955.13
2019-03-15T11:07:45.341Z,955.13
2019-03-15T11:08:45.268Z,955.10
2019-03-15T11:09:45.212Z,955.13
2019-03-15T11:10:45.137Z,955.10
2019-03-15T11:11:45.083Z,955.03
2019-03-15T11:12:45.003Z,955.13
2019-03-15T11:13:44.941Z,955.08
2019-03-15T11:14:44.871Z,955.07
2019-03-15T11:15:44.807Z,955.09
2019-03-15T11:16:44.763Z,955.07
2019-03-15T11:17:44.682Z,955.09
2019-03-15T11:18:44.617Z,954.99
2019-03-15T11:19:44.543Z,955.06
2019-03-15T11:20:44.479Z,955.15
2019-03-15T11:21:44.409Z,955.19
2019-03-15T11:22:44.348Z,955.15
2019-03-15T11:23:44.283Z,955.12
2019-03-15T11:24:44.228Z,955.11
2019-03-15T11:25:44.179Z,955.17
2019-03-15T11:26:44.081Z,955.17
2019-03-15T11:27:44.020Z,955.14
2019-03-15T11:28:43.955Z,955.13
2019-03-15T11:29:43.894Z,955.14
2019-03-15T11:30:43.824Z,955.22
2019-03-15T11:31:43.756Z,955.02
2019-03-15T11:32:43.691Z,955.14
2019-03-15T11:33:43.624Z,955.15
2019-03-15T11:34:43.562Z,955.12
2019-03-15T11:35:43.496Z,955.15
2019-03-15T11:36:43.433Z,955.09
2019-03-15T11:37:43.364Z,955.15
2019-03-15T11:38:43.298Z,955.08
2019-03-15T11:39:43.235Z,955.05
2019-03-15T11:40:43.174Z,955.04
2019-03-15T11:41:43.104Z,955.02
2019-03-15T11:42:43.038Z,955.00
2019-03-15T11:43:42.977Z,955.04
2019-03-15T11:44:42.906Z,955.03
2019-03-15T11:45:42.904Z,955.07
2019-03-15T11:46:42.811Z,955.03
2019-03-15T11:48:01.284Z,955.06
2019-03-15T11:48:42.646Z,954.94
2019-03-15T11:49:42.581Z,955.05
2019-03-15T11:50:42.512Z,955.02
2019-03-15T11:51:42.789Z,954.99
2019-03-15T11:52:42.399Z,954.99
2019-03-15T11:53:42.318Z,955.04
2019-03-15T11:54:42.254Z,955.03
2019-03-15T11:55:42.194Z,955.09
2019-03-15T11:56:42.129Z,955.03
2019-03-15T11:57:42.068Z,955.00
2019-03-15T11:58:41.994Z,955.05
2019-03-15T11:59:41.930Z,955.00
2019-03-15T12:00:41.958Z,955.02
2019-03-15T12:01:41.800Z,955.05
2019-03-15T12:02:41.747Z,955.01
2019-03-15T12:03:52.450Z,955.00
2019-03-15T12:04:41.603Z,955.10
2019-03-15T12:05:41.541Z,955.07
2019-03-15T12:06:41.478Z,955.05
2019-03-15T12:07:41.411Z,955.03
2019-03-15T12:08:41.343Z,955.03
2019-03-15T12:09:41.280Z,954.92
2019-03-15T12:10:41.216Z,955.06
2019-03-15T12:11:41.153Z,955.04
2019-03-15T12:12:41.086Z,954.91
2019-03-15T12:13:41.024Z,954.99
2019-03-15T12:14:41.490Z,954.96
2019-03-15T12:15:40.902Z,954.96
2019-03-15T12:16:40.826Z,954.97
2019-03-15T12:17:40.763Z,954.98
2019-03-15T12:18:40.699Z,955.10
2019-03-15T12:19:40.634Z,955.00
2019-03-15T12:20:40.569Z,955.00
2019-03-15T12:21:40.502Z,954.98
2019-03-15T12:22:40.439Z,954.97
2019-03-15T12:23:40.374Z,954.89
2019-03-15T12:24:40.315Z,954.93
2019-03-15T12:25:40.244Z,954.87
2019-03-15T12:26:40.877Z,954.93
2019-03-15T12:27:40.118Z,954.96